Aérodrome :
LOGIN :

S'inscrire | Disclaimer

   EN    FR    IT 

 










Légende :    VFR   VFR Marginal   IFR   IFR Intensif   IFR Très Intensif
Visi : 
Plafond : 
>= 8 km
>= 3000ft
5 à 8 km
1000 à 3000 ft
1500m à 5 km
500 à 1000 ft
800 à 1500m
200 à 500 ft
< 800m
< 200 ft
Symboles :   Orages  Brouillard  Fortes neiges  Fortes précipitations  Vent > 20 kt
SIGMETs :   Divers  Orages  Givrage  Turbulence  Onde Orograph.  Cendres Volcan.







- Altitude de l'aérodrome : 935 ft


EBFS - Florennes

DERNIER METAR :
  • 170725Z VRB01KT 1200 BCFG FEW001 SCT230 12/11 Q1023 AMB AMB TEMPO RED

METARs EXPIRÉS :
  • 170655Z VRB02KT 1200 BCFG FEW001 SCT230 12/11 Q1023 AMB AMB TEMPO RED
  • 170625Z VRB01KT 1200 BCFG FEW001 SCT230 11/10 Q1023 AMB AMB TEMPO RED
  • 170618Z VRB01KT 1500 BCFG FEW001 SCT230 11/10 Q1023 AMB AMB TEMPO RED
  • 170555Z VRB02KT 3000 BR FEW010 SCT230 11/10 Q1023 YLO YLO TEMPO AMB
  • 170540Z VRB01KT 3000 BR FEW010 SCT230 12/11 Q1023 YLO YLO TEMPO AMB
  • 170533Z VRB01KT 4000 BR FEW010 SCT230 12/11 Q1023 GRN GRN TEMPO YLO
  • 170525Z VRB01KT 6000 FEW010 SCT230 12/11 Q1023 WHT GRN TEMPO YLO
  • 170510Z VRB02KT 6000 FEW010 SCT050 12/11 Q1023 WHT GRN TEMPO YLO
  • 170455Z VRB02KT 9000 FEW010 SCT050 12/11 Q1023 BLU BLU TEMPO GRN

TAF AMD TAF EBFS
Valide du 17 à 07h jusqu'au 17 à 16h UTC


170622Z 1707/1716 VRB03KT 4000 BR FEW010 SCT050
TEMPO 1707/1709 1000 MIFG SCT003
PROB40
TEMPO 1707/1708 500 FG SCT002
BECMG 1709/1711 20005KT 9999 SCT030
BECMG 1714/1716 12005KT 9999 BKN025
Pas de NOTAMs connus pour ce terrain.



MET'MAP, la Météo Aéronautique d'un coup d'oeil ! - Copyright ORBIFLY Décembre 2007 - Disclaimer

ORBIFLY MET'MAP TEAM :

Programmation & Développement : Alexandra Zaïnal
Conception & Développement : Baudouin d'Aumeries
Co-Programmation & Développement : Marc-Olivier Méhu
Soutien technique & logistique : Manuel Goepfert

Contact : metmap@orbifly.com




SOURCES & CREDITS :

   NOAA